createdAt,value
2023-03-16T00:21:15.093Z,4.70
2023-03-16T00:24:38.513Z,4.70
2023-03-16T00:31:28.505Z,4.70
2023-03-16T00:48:34.429Z,4.60
2023-03-16T00:55:22.605Z,4.50
2023-03-16T00:58:46.261Z,4.50
2023-03-16T01:02:11.425Z,4.50
2023-03-16T01:05:42.026Z,4.40
2023-03-16T01:12:30.398Z,4.30
2023-03-16T01:22:43.074Z,4.20
2023-03-16T01:26:08.378Z,4.20
2023-03-16T01:29:32.968Z,4.20
2023-03-16T01:36:21.056Z,4.20
2023-03-16T01:39:59.179Z,4.10
2023-03-16T01:43:26.726Z,4.10
2023-03-16T01:46:52.432Z,4.10
2023-03-16T01:53:46.805Z,4.00
2023-03-16T01:57:16.493Z,4.00
2023-03-16T02:04:27.929Z,4.10
2023-03-16T02:07:58.889Z,4.10
2023-03-16T02:11:24.474Z,4.20
2023-03-16T02:15:11.415Z,4.20
2023-03-16T02:18:36.473Z,4.20
2023-03-16T02:22:04.965Z,4.20
2023-03-16T02:25:41.642Z,4.30
2023-03-16T02:29:25.553Z,4.30
2023-03-16T02:32:53.812Z,6.90
2023-03-16T02:36:20.806Z,4.30
2023-03-16T02:39:44.621Z,4.30
2023-03-16T02:43:19.844Z,4.30
2023-03-16T02:46:57.267Z,4.30
2023-03-16T02:50:22.622Z,4.30
2023-03-16T02:53:45.983Z,4.30
2023-03-16T03:07:32.191Z,4.30
2023-03-16T03:11:00.162Z,4.30
2023-03-16T03:21:12.816Z,4.20
2023-03-16T03:24:38.373Z,4.20
2023-03-16T03:28:05.504Z,4.10
2023-03-16T03:38:18.186Z,4.10
2023-03-16T03:41:43.841Z,4.10
2023-03-16T03:45:12.602Z,4.10
2023-03-16T03:58:53.888Z,4.00
2023-03-16T04:02:37.393Z,4.00
2023-03-16T04:06:03.053Z,4.00
2023-03-16T04:09:28.418Z,4.00
2023-03-16T04:12:52.231Z,4.00
2023-03-16T04:16:17.615Z,4.00
2023-03-16T04:19:44.673Z,4.40
2023-03-16T04:23:11.536Z,4.00
2023-03-16T04:26:37.333Z,4.30
2023-03-16T04:30:01.843Z,4.10
2023-03-16T04:33:27.801Z,4.10
2023-03-16T04:36:52.815Z,4.10
2023-03-16T04:40:16.906Z,4.10
2023-03-16T04:43:46.932Z,4.10
2023-03-16T04:47:18.534Z,4.10
2023-03-16T04:50:43.616Z,4.10
2023-03-16T04:54:07.965Z,4.10
2023-03-16T04:57:35.090Z,4.20
2023-03-16T05:00:59.666Z,4.00
2023-03-16T05:04:26.320Z,4.00
2023-03-16T05:07:51.868Z,3.80
2023-03-16T05:11:15.586Z,4.00
2023-03-16T05:14:49.026Z,4.00
2023-03-16T05:18:19.938Z,3.90
2023-03-16T05:21:43.516Z,3.90
2023-03-16T05:25:14.824Z,3.90
2023-03-16T05:28:40.101Z,3.90
2023-03-16T05:32:08.458Z,4.70
2023-03-16T05:35:33.516Z,3.90
2023-03-16T05:39:01.547Z,3.90
2023-03-16T05:42:31.097Z,3.90
2023-03-16T05:45:58.815Z,3.90
2023-03-16T05:49:22.585Z,3.90
2023-03-16T05:52:48.349Z,5.70
2023-03-16T05:56:17.396Z,3.90
2023-03-16T05:59:45.135Z,3.90
2023-03-16T06:03:09.911Z,3.90
2023-03-16T06:06:35.116Z,4.00
2023-03-16T06:10:07.608Z,4.00
2023-03-16T06:13:31.670Z,4.00
2023-03-16T06:16:56.934Z,4.10
2023-03-16T06:20:21.255Z,4.20
2023-03-16T06:23:45.070Z,4.20
2023-03-16T06:27:09.159Z,4.30
2023-03-16T06:30:45.361Z,4.50
2023-03-16T06:34:10.355Z,4.40
2023-03-16T06:37:34.198Z,4.40
2023-03-16T06:41:02.653Z,4.50
2023-03-16T06:44:29.076Z,4.50
2023-03-16T06:48:01.319Z,4.50
2023-03-16T06:51:27.033Z,4.60
2023-03-16T06:54:51.293Z,4.60
2023-03-16T06:58:16.971Z,4.70
2023-03-16T07:01:42.134Z,4.70
2023-03-16T07:05:06.658Z,4.80
2023-03-16T07:08:31.758Z,4.90
2023-03-16T07:11:55.594Z,4.90
2023-03-16T07:15:21.107Z,4.90
2023-03-16T07:18:45.121Z,5.00
2023-03-16T07:22:12.714Z,5.00
2023-03-16T07:25:39.612Z,5.00
2023-03-16T07:29:04.998Z,5.10
2023-03-16T07:32:29.549Z,5.10
2023-03-16T07:35:53.531Z,5.20
2023-03-16T07:39:17.837Z,5.30
2023-03-16T07:42:44.073Z,5.40
2023-03-16T07:46:13.639Z,5.50
2023-03-16T07:49:37.801Z,5.90
2023-03-16T07:53:01.294Z,5.80
2023-03-16T07:56:25.183Z,6.00
2023-03-16T07:59:53.915Z,6.40
2023-03-16T08:03:17.717Z,7.10
2023-03-16T08:06:43.248Z,8.00
2023-03-16T08:10:08.357Z,9.10
2023-03-16T08:13:43.793Z,10.20
2023-03-16T08:17:09.269Z,11.20
2023-03-16T08:20:32.955Z,12.20
2023-03-16T08:23:56.640Z,13.20
2023-03-16T08:27:20.688Z,14.10
2023-03-16T08:30:50.903Z,15.10
2023-03-16T08:34:28.804Z,15.90
2023-03-16T08:37:52.379Z,16.70
2023-03-16T08:41:17.310Z,17.50
2023-03-16T08:44:43.974Z,18.20
2023-03-16T08:48:08.442Z,18.70
2023-03-16T08:51:33.703Z,19.20
2023-03-16T08:55:03.478Z,19.50
2023-03-16T08:58:30.486Z,19.90
2023-03-16T09:01:54.467Z,20.20
2023-03-16T09:05:18.717Z,20.30
2023-03-16T09:08:45.501Z,20.50
2023-03-16T09:12:09.605Z,20.80
2023-03-16T09:15:33.254Z,21.00
2023-03-16T09:18:56.715Z,21.20
2023-03-16T09:22:20.527Z,21.60
2023-03-16T09:25:45.347Z,21.90
2023-03-16T09:29:08.829Z,22.40
2023-03-16T09:32:33.524Z,22.70
2023-03-16T09:35:58.616Z,22.80
2023-03-16T09:39:22.901Z,22.90
2023-03-16T09:43:03.155Z,23.00
2023-03-16T09:46:33.971Z,23.10
2023-03-16T09:50:04.182Z,23.30
2023-03-16T09:53:32.723Z,23.50
2023-03-16T09:56:59.022Z,23.60
2023-03-16T10:00:28.456Z,23.80
2023-03-16T10:04:27.861Z,23.90
2023-03-16T10:08:05.882Z,23.80
2023-03-16T10:11:38.407Z,23.50
2023-03-16T10:15:11.179Z,23.30
2023-03-16T10:18:44.891Z,23.10
2023-03-16T10:22:20.308Z,22.90
2023-03-16T10:25:48.948Z,22.70
2023-03-16T10:29:14.550Z,22.50
2023-03-16T10:32:38.375Z,22.20
2023-03-16T10:36:15.582Z,21.90
2023-03-16T10:39:43.003Z,21.60
2023-03-16T10:43:09.265Z,21.30
2023-03-16T10:46:40.298Z,21.10
2023-03-16T10:50:16.738Z,21.10
2023-03-16T10:53:45.515Z,21.00
2023-03-16T10:57:25.301Z,21.00
2023-03-16T11:00:48.873Z,21.00
2023-03-16T11:04:17.913Z,21.10
2023-03-16T11:07:49.880Z,21.20
2023-03-16T11:11:19.155Z,21.40
2023-03-16T11:14:46.603Z,21.70
2023-03-16T11:18:29.581Z,21.90
2023-03-16T11:21:59.946Z,22.10
2023-03-16T11:25:33.798Z,22.30
2023-03-16T11:29:09.340Z,22.50
2023-03-16T11:32:38.540Z,22.60
2023-03-16T11:36:27.729Z,22.60
2023-03-16T11:40:14.243Z,22.70
2023-03-16T11:43:54.036Z,22.90
2023-03-16T11:47:56.042Z,23.20
2023-03-16T11:51:37.609Z,23.30
2023-03-16T11:55:21.260Z,23.40
2023-03-16T11:59:09.044Z,23.40
2023-03-16T12:02:56.165Z,23.30
2023-03-16T12:06:34.114Z,23.20
2023-03-16T12:10:18.595Z,23.40
2023-03-16T12:14:02.225Z,23.20
2023-03-16T12:17:32.435Z,23.10
2023-03-16T12:21:01.289Z,23.10
2023-03-16T12:24:33.897Z,23.20
2023-03-16T12:28:02.869Z,23.00
2023-03-16T12:31:41.808Z,23.20
2023-03-16T12:35:26.110Z,22.70
2023-03-16T12:38:57.907Z,22.50
2023-03-16T12:42:55.493Z,24.20
2023-03-16T12:46:32.623Z,21.80
2023-03-16T12:50:05.493Z,21.40
2023-03-16T12:53:43.387Z,21.00
2023-03-16T12:57:16.919Z,20.70
2023-03-16T13:00:42.750Z,20.40
2023-03-16T13:04:13.511Z,20.10
2023-03-16T13:11:06.304Z,19.40
2023-03-16T13:14:41.735Z,19.20
2023-03-16T13:18:23.343Z,19.00
2023-03-16T13:25:22.457Z,18.60
2023-03-16T13:35:45.402Z,18.10
2023-03-16T13:39:18.758Z,17.70
2023-03-16T13:49:48.742Z,17.20
2023-03-16T13:53:18.482Z,17.00
2023-03-16T14:14:16.470Z,16.60
2023-03-16T14:28:08.806Z,16.80
2023-03-16T14:31:39.716Z,16.70
2023-03-16T14:35:16.358Z,16.60
2023-03-16T14:42:16.050Z,16.40
2023-03-16T14:49:11.301Z,16.20
2023-03-16T14:52:37.154Z,16.20
2023-03-16T14:59:26.992Z,16.10
2023-03-16T15:03:03.146Z,16.00
2023-03-16T15:06:27.321Z,16.00
2023-03-16T15:09:53.751Z,16.00
2023-03-16T15:13:34.844Z,16.20
2023-03-16T15:16:59.708Z,15.80
2023-03-16T15:20:30.405Z,15.80
2023-03-16T15:23:54.578Z,15.80
2023-03-16T15:27:26.394Z,15.80
2023-03-16T15:30:53.483Z,15.70
2023-03-16T15:34:18.547Z,15.70
2023-03-16T15:37:42.248Z,15.70
2023-03-16T15:51:29.000Z,15.70
2023-03-16T15:58:21.308Z,15.70
2023-03-16T16:01:48.479Z,15.70
2023-03-16T16:08:37.752Z,15.70
2023-03-16T16:12:01.332Z,15.80
2023-03-16T16:18:53.162Z,15.70
2023-03-16T16:25:43.727Z,15.50
2023-03-16T16:29:14.124Z,15.40
2023-03-16T16:32:37.755Z,15.40
2023-03-16T16:36:03.980Z,15.30
2023-03-16T16:49:44.778Z,15.10
2023-03-16T16:56:45.111Z,15.00
2023-03-16T17:00:23.101Z,15.10
2023-03-16T17:03:46.969Z,14.90
2023-03-16T17:07:13.483Z,14.80
2023-03-16T17:10:38.330Z,14.70
2023-03-16T17:14:06.360Z,14.60
2023-03-16T17:17:31.806Z,14.40
2023-03-16T17:20:57.042Z,14.40
2023-03-16T17:24:20.961Z,14.30
2023-03-16T17:27:48.226Z,14.20
2023-03-16T17:31:13.670Z,14.10
2023-03-16T17:34:38.682Z,14.00
2023-03-16T17:38:02.154Z,14.00
2023-03-16T17:41:30.132Z,13.90
2023-03-16T17:44:55.540Z,13.80
2023-03-16T17:48:24.592Z,13.80
2023-03-16T17:51:49.620Z,13.70
2023-03-16T17:55:14.112Z,13.60
2023-03-16T17:58:38.201Z,13.60
2023-03-16T18:02:01.897Z,13.50
2023-03-16T18:05:28.847Z,13.40
2023-03-16T18:08:54.291Z,13.30
2023-03-16T18:12:17.919Z,13.30
2023-03-16T18:15:41.595Z,13.30
2023-03-16T18:19:21.699Z,13.10
2023-03-16T18:22:45.288Z,13.10
2023-03-16T18:26:11.382Z,13.10
2023-03-16T18:29:34.981Z,13.00
2023-03-16T18:33:00.152Z,12.90
2023-03-16T18:39:55.067Z,12.90
2023-03-16T18:43:19.901Z,12.80
2023-03-16T18:57:05.620Z,12.70
2023-03-16T19:14:23.540Z,12.40
2023-03-16T19:21:21.073Z,12.30
2023-03-16T19:35:15.457Z,12.10
2023-03-16T19:52:22.658Z,12.00
2023-03-16T20:12:56.613Z,11.60
2023-03-16T20:33:42.106Z,11.30
2023-03-16T20:37:23.744Z,11.20
2023-03-16T20:40:50.486Z,11.90
2023-03-16T20:44:19.145Z,11.00
2023-03-16T20:47:42.943Z,10.90
2023-03-16T20:51:08.338Z,10.80
2023-03-16T21:35:47.096Z,10.30
2023-03-16T21:42:43.980Z,10.20
2023-03-16T21:46:17.919Z,10.10
2023-03-16T21:49:41.620Z,10.10
2023-03-16T21:53:06.953Z,10.10
2023-03-16T21:59:54.408Z,10.10
2023-03-16T22:03:33.010Z,10.00
2023-03-16T22:07:01.543Z,9.90
2023-03-16T22:10:28.523Z,9.90
2023-03-16T22:13:53.332Z,9.90
2023-03-16T22:17:23.170Z,9.90
2023-03-16T22:20:47.486Z,9.90
2023-03-16T22:24:18.319Z,9.90
2023-03-16T22:27:43.221Z,9.90
2023-03-16T22:31:06.846Z,9.90
2023-03-16T22:34:34.314Z,10.00
2023-03-16T22:38:01.686Z,10.00
2023-03-16T22:41:25.379Z,10.00
2023-03-16T22:44:50.840Z,9.90
2023-03-16T22:48:20.591Z,9.90
2023-03-16T22:51:44.201Z,9.90
2023-03-16T22:55:15.817Z,9.90
2023-03-16T22:58:43.357Z,9.80
2023-03-16T23:02:14.829Z,9.80
2023-03-16T23:05:38.337Z,9.80
2023-03-16T23:09:02.292Z,9.70
2023-03-16T23:12:26.986Z,9.70
2023-03-16T23:15:53.445Z,9.60
2023-03-16T23:19:29.687Z,9.60
2023-03-16T23:22:53.863Z,9.50
2023-03-16T23:26:20.983Z,9.50
2023-03-16T23:29:44.648Z,9.50
2023-03-16T23:33:08.705Z,9.40
2023-03-16T23:36:33.684Z,9.40
2023-03-16T23:39:57.138Z,9.40
2023-03-16T23:46:44.741Z,9.40
2023-03-16T23:50:13.669Z,9.50
2023-03-16T23:53:40.344Z,9.40
2023-03-16T23:57:04.286Z,9.40
